Terminal Aerodrome Forecast
Issued by NWS Topeka, KS

Home | Current Version | Previous Version | Text Only | Print | Product List | Glossary On
Versions: 1 2 3 4 5 6 7 8 9 10 11 12 13 14 15 16 17 18
000
FTUS43 KTOP 191740
TAFTOP
TAF
KTOP 191740Z 1918/2018 15004KT 4SM BR OVC005
     FM192200 15005KT 6SM BR OVC010
     FM200100 11004KT 6SM -DZ BR OVC008
     FM200400 11004KT 3SM -DZ BR OVC003
     FM200600 11004KT 2SM BR OVC003
      TEMPO 2011/2015 1/2SM FG
     FM201500 14006KT 3SM BR OVC003=

USA.gov is the U.S. government's official web portal to all federal, state and local government web resources and services.